KCLL/CLL METAR and TAF weather

Enter ICAO airport designator
Station Type Date Time Source
KCLL METAR 2019/08/22 15:53 UTC NOAA

KCLL 221553Z 17006KT 10SM SCT025 31/23 A2999 RMK AO2 SLP150 T03110233


Station Type Date Time Source
KCLL Decoded METAR 2019/08/22 15:53 UTC NOAA

Station name not available
Aug 22, 2019 - 11:53 AM EDT / 2019.08.22 1553 UTC
Wind: from the S (170 degrees) at 7 MPH (6 KT):0
Visibility: 10 mile(s):0
Sky conditions: partly cloudy
Temperature: 88.0 F (31.1 C)
Heat index: 96.6 F (35.9 C):1
Dew Point: 73.9 F (23.3 C)
Relative Humidity: 63%
Pressure (altimeter): 29.99 in. Hg (1015 hPa)
ob: KCLL 221553Z 17006KT 10SM SCT025 31/23 A2999 RMK AO2 SLP150 T03110233
cycle: 16

Station Type Date Time Source
KCLL TAF 2019/08/22 12:27 UTC NOAA

TAF KCLL 221124Z 2212/2312 15008KT P6SM SCT250

Example: see airport list